Time;durP1;ratioP1;P1;durP2;ratioP2;P2;SDS_P1;SDS_P2;PMS_P1;PMS_P2;Temp;Humidity;BMP_temperature;BMP_pressure;BME280_temperature;BME280_humidity;BME280_pressure;Samples;Min_cycle;Max_cycle;Signal;HPM_P1;HPM_P2
2023/01/01 00:00:05;;;;;;;9.25;5.93;;;;;;;19.06;50.70;100632.75;5061828;28;20036;-62
2023/01/01 00:02:31;;;;;;;9.13;6.40;;;;;;;19.06;50.56;100632.75;5064608;28;20020;-62
2023/01/01 00:04:56;;;;;;;9.70;6.63;;;;;;;19.05;50.63;100635.66;5064720;28;20527;-62
2023/01/01 00:07:21;;;;;;;10.93;6.38;;;;;;;18.98;50.59;100628.25;5064250;28;20040;-62
2023/01/01 00:12:32;;;;;;;10.93;6.20;;;;;;;19.04;50.28;100633.97;5064593;28;20031;-62
2023/01/01 00:14:57;;;;;;;8.52;5.93;;;;;;;18.97;50.34;100625.75;5064459;28;20025;-61
2023/01/01 00:17:22;;;;;;;7.57;5.55;;;;;;;19.03;50.62;100632.28;5064427;28;20027;-62
2023/01/01 00:19:47;;;;;;;8.98;5.88;;;;;;;19.01;50.43;100629.75;5064528;28;20054;-61
2023/01/01 00:22:13;;;;;;;9.68;6.32;;;;;;;19.01;50.49;100640.53;5063867;28;20032;-60
2023/01/01 00:24:38;;;;;;;7.53;5.60;;;;;;;19.01;50.53;100640.53;5064257;28;20028;-61
2023/01/01 00:27:03;;;;;;;9.32;6.65;;;;;;;18.99;50.67;100645.28;5064211;28;20025;-59
2023/01/01 00:29:28;;;;;;;8.82;5.60;;;;;;;19.00;50.46;100649.66;5063134;28;20433;-62
2023/01/01 00:31:54;;;;;;;8.55;6.07;;;;;;;19.00;50.05;100646.13;5064313;28;20128;-62
2023/01/01 00:34:19;;;;;;;12.07;5.88;;;;;;;18.99;50.44;100645.28;5064192;28;20025;-61
2023/01/01 00:36:44;;;;;;;9.18;5.47;;;;;;;18.98;50.16;100652.50;5064200;28;20052;-61
2023/01/01 00:39:09;;;;;;;7.88;5.50;;;;;;;18.98;50.44;100649.81;5064081;28;20955;-61
2023/01/01 00:41:35;;;;;;;9.63;6.03;;;;;;;18.98;50.20;100646.28;5064466;28;20017;-61
2023/01/01 00:44:00;;;;;;;8.30;6.63;;;;;;;18.97;50.59;100653.50;5064334;28;20021;-61
2023/01/01 00:46:25;;;;;;;9.60;6.00;;;;;;;18.97;50.15;100658.91;5062842;28;20028;-60
2023/01/01 00:48:51;;;;;;;8.77;6.13;;;;;;;18.96;50.14;100649.16;5064079;28;20084;-61
2023/01/01 00:51:16;;;;;;;9.70;6.20;;;;;;;18.96;50.07;100642.94;5064201;28;20044;-61
2023/01/01 00:53:41;;;;;;;7.95;6.25;;;;;;;18.96;50.46;100651.00;5063545;28;20063;-61
2023/01/01 00:56:07;;;;;;;9.48;6.45;;;;;;;18.96;50.04;100642.94;5063102;28;20033;-62
2023/01/01 00:58:32;;;;;;;8.13;6.28;;;;;;;18.95;50.15;100644.78;5064256;28;20136;-61
2023/01/01 01:00:57;;;;;;;9.32;6.78;;;;;;;18.94;50.26;100634.16;5064205;28;20112;-62
2023/01/01 01:03:29;;;;;;;9.57;6.05;;;;;;;18.94;50.28;100656.56;5064211;28;20033;-61
2023/01/01 01:05:55;;;;;;;7.43;5.78;;;;;;;18.94;50.19;100637.69;5066655;28;20024;-61
2023/01/01 01:08:20;;;;;;;10.65;6.47;;;;;;;18.94;50.28;100634.16;5067528;28;20063;-61
2023/01/01 01:10:46;;;;;;;8.55;6.10;;;;;;;18.93;50.12;100630.63;5068082;28;20037;-61
2023/01/01 01:13:11;;;;;;;10.57;6.72;;;;;;;18.94;50.21;100644.94;5067575;28;20058;-62
2023/01/01 01:15:37;;;;;;;8.52;6.05;;;;;;;18.89;50.04;100634.69;5067448;28;20082;-61
2023/01/01 01:18:02;;;;;;;8.95;6.18;;;;;;;18.92;50.19;100628.97;5067654;28;20028;-62
2023/01/01 01:20:27;;;;;;;9.90;6.50;;;;;;;18.92;49.83;100641.59;5067676;28;20024;-62
2023/01/01 01:22:52;;;;;;;8.75;6.03;;;;;;;18.91;50.16;100651.53;5067012;28;20088;-62
2023/01/01 01:25:18;;;;;;;8.05;6.63;;;;;;;18.90;49.91;100635.53;5067513;28;20385;-61
2023/01/01 01:27:43;;;;;;;9.88;6.28;;;;;;;18.90;49.72;100643.59;5067143;28;20032;-61
2023/01/01 01:30:08;;;;;;;8.93;6.20;;;;;;;18.90;49.85;100657.09;5067801;28;20025;-62
2023/01/01 01:32:34;;;;;;;8.00;5.68;;;;;;;18.89;50.20;100674.25;5067192;28;20025;-62
2023/01/01 01:34:59;;;;;;;9.07;5.82;;;;;;;18.89;50.12;100664.31;5067510;28;20017;-61
2023/01/01 01:37:24;;;;;;;8.77;6.45;;;;;;;18.89;49.88;100668.88;5066671;28;20032;-61
2023/01/01 01:39:49;;;;;;;7.00;5.47;;;;;;;18.88;49.80;100670.72;5067385;28;20025;-61
2023/01/01 01:42:16;;;;;;;8.65;5.57;;;;;;;18.82;49.93;100665.19;5067110;28;20029;-61
2023/01/01 01:44:45;;;;;;;8.40;6.00;;;;;;;18.87;49.84;100677.16;5067454;28;20025;-61
2023/01/01 01:47:38;;;;;;;8.40;5.80;;;;;;;18.87;50.00;100681.69;5067158;28;20021;-61
2023/01/01 01:50:29;;;;;;;7.80;5.95;;;;;;;18.87;50.00;100696.00;5099219;28;20455;-61
2023/01/01 01:53:07;;;;;;;8.95;5.93;;;;;;;18.86;50.10;100696.16;5063614;28;20049;-62
2023/01/01 01:55:34;;;;;;;8.95;5.60;;;;;;;18.80;49.71;100688.78;5067248;28;20029;-61
2023/01/01 01:58:00;;;;;;;8.15;6.13;;;;;;;18.82;49.66;100702.91;5066831;28;20025;-62
2023/01/01 02:00:26;;;;;;;10.57;7.10;;;;;;;18.85;49.70;100705.25;5049114;28;20032;-62
2023/01/01 02:03:19;;;;;;;10.43;5.63;;;;;;;18.85;49.74;100702.56;5066784;28;20024;-62
2023/01/01 02:05:45;;;;;;;9.30;6.20;;;;;;;18.83;49.99;100713.53;5062418;28;20037;-62
2023/01/01 02:08:13;;;;;;;9.40;5.80;;;;;;;18.84;50.02;100695.50;5065033;28;20028;-61
2023/01/01 02:10:38;;;;;;;6.85;5.80;;;;;;;18.84;50.31;100708.97;5066574;28;20029;-62
2023/01/01 02:13:03;;;;;;;7.28;4.80;;;;;;;18.83;49.79;100713.53;5066422;28;20036;-62
2023/01/01 02:15:34;;;;;;;8.02;5.63;;;;;;;18.75;49.98;100708.16;5065983;28;20083;-62
2023/01/01 02:18:08;;;;;;;9.70;6.40;;;;;;;18.82;49.64;100717.22;5066730;28;20025;-62
2023/01/01 02:20:47;;;;;;;7.63;5.15;;;;;;;18.83;49.99;100718.06;5066353;28;20051;-62
2023/01/01 02:23:21;;;;;;;8.75;5.60;;;;;;;18.82;49.71;100719.94;5064975;28;20024;-62
2023/01/01 02:26:09;;;;;;;8.63;5.53;;;;;;;18.82;49.79;100719.06;5065429;28;20048;-62
2023/01/01 02:28:46;;;;;;;9.48;5.55;;;;;;;18.81;49.83;100723.63;5066163;28;20029;-61
2023/01/01 02:31:14;;;;;;;7.95;5.53;;;;;;;18.81;49.58;100730.84;5066494;28;20485;-62
2023/01/01 02:33:39;;;;;;;8.40;5.50;;;;;;;18.80;49.70;100740.78;5048259;28;20031;-62
2023/01/01 02:36:05;;;;;;;9.40;5.13;;;;;;;18.79;49.48;100717.56;5066085;28;20021;-62
2023/01/01 02:38:33;;;;;;;8.32;4.68;;;;;;;18.79;49.65;100720.25;5098166;28;20020;-61
2023/01/01 02:41:05;;;;;;;5.90;4.68;;;;;;;18.78;49.85;100723.97;5066491;28;20043;-61
2023/01/01 02:43:31;;;;;;;7.15;5.45;;;;;;;18.77;49.79;100707.97;5098382;28;20635;-61
2023/01/01 02:45:56;;;;;;;6.50;5.15;;;;;;;18.78;49.59;100709.69;5066052;28;20035;-62
2023/01/01 02:48:48;;;;;;;6.75;4.68;;;;;;;18.77;49.70;100730.34;5065785;28;20055;-62
2023/01/01 02:51:15;;;;;;;7.13;4.90;;;;;;;18.76;49.64;100736.75;5065586;28;20039;-62
2023/01/01 02:53:47;;;;;;;5.55;4.40;;;;;;;18.76;49.51;100736.75;5065649;28;20120;-61
2023/01/01 02:56:12;;;;;;;7.75;5.18;;;;;;;18.76;49.55;100734.06;5064608;28;20096;-61
2023/01/01 03:01:49;;;;;;;6.68;4.68;;;;;;;18.76;49.42;100727.84;5093116;28;20031;-62
2023/01/01 03:04:23;;;;;;;5.95;4.75;;;;;;;18.74;49.42;100730.72;5064226;28;20024;-61
2023/01/01 03:06:53;;;;;;;8.50;5.38;;;;;;;18.73;49.88;100723.63;5065398;28;20052;-62
2023/01/01 03:09:30;;;;;;;6.00;4.47;;;;;;;18.73;49.47;100724.50;5065220;28;20032;-61
2023/01/01 03:12:04;;;;;;;8.32;5.13;;;;;;;18.71;49.48;100729.19;5065433;28;20031;-61
2023/01/01 03:14:37;;;;;;;7.45;4.70;;;;;;;18.74;49.74;100738.81;5065716;28;20036;-61
2023/01/01 03:17:25;;;;;;;6.20;4.35;;;;;;;18.67;49.81;100727.00;5065199;28;20021;-62
2023/01/01 03:19:52;;;;;;;8.00;5.13;;;;;;;18.73;49.65;100737.09;5063866;28;20082;-61
2023/01/01 03:22:19;;;;;;;6.80;4.03;;;;;;;18.72;49.72;100725.50;5047076;28;20037;-61
2023/01/01 03:24:50;;;;;;;5.63;4.03;;;;;;;18.69;49.58;100723.16;5063975;28;20029;-62
2023/01/01 03:27:29;;;;;;;5.82;4.03;;;;;;;18.72;49.54;100732.72;5063244;28;20082;-62
2023/01/01 03:29:58;;;;;;;6.40;4.03;;;;;;;18.63;49.45;100717.56;5065080;28;20029;-61
2023/01/01 03:35:18;;;;;;;6.28;3.95;;;;;;;18.71;49.41;100734.59;5065218;28;20063;-62
2023/01/01 03:37:48;;;;;;;5.57;3.80;;;;;;;18.71;49.45;100739.13;5046935;28;20029;-61
2023/01/01 03:40:13;;;;;;;7.00;4.60;;;;;;;18.70;49.25;100741.00;5097749;28;20024;-62
2023/01/01 03:42:44;;;;;;;5.13;3.67;;;;;;;18.69;49.26;100739.31;5065667;28;20048;-62
2023/01/01 03:45:15;;;;;;;5.88;4.50;;;;;;;18.64;49.43;100720.09;5076648;28;20032;-62
2023/01/01 03:47:40;;;;;;;8.13;4.88;;;;;;;18.68;49.62;100734.06;5063347;28;20402;-61
2023/01/01 03:50:06;;;;;;;4.82;4.10;;;;;;;18.68;49.49;100739.44;5063508;28;20056;-61
2023/01/01 03:52:47;;;;;;;5.18;3.90;;;;;;;18.68;49.27;100732.19;5064293;28;20145;-61
2023/01/01 03:55:31;;;;;;;5.28;3.53;;;;;;;18.70;49.22;100742.84;5064969;28;20025;-62
2023/01/01 03:58:04;;;;;;;6.85;4.32;;;;;;;18.68;49.23;100748.34;5063362;28;20092;-61
2023/01/01 04:00:37;;;;;;;6.22;4.22;;;;;;;18.68;49.28;100750.22;5097333;28;20486;-62
2023/01/01 04:03:10;;;;;;;6.05;3.70;;;;;;;18.68;49.28;100752.91;5064809;28;20120;-62
2023/01/01 04:05:38;;;;;;;5.90;3.70;;;;;;;18.66;49.36;100761.16;5063074;28;20090;-61
2023/01/01 04:08:03;;;;;;;6.22;3.95;;;;;;;18.60;49.06;100761.81;5063018;28;20028;-61
2023/01/01 04:10:30;;;;;;;5.22;3.72;;;;;;;18.67;49.14;100778.16;5064681;28;20025;-61
2023/01/01 04:12:56;;;;;;;7.13;3.63;;;;;;;18.66;48.98;100777.31;5063136;28;20024;-61
2023/01/01 04:15:26;;;;;;;5.63;3.83;;;;;;;18.64;49.38;100783.88;5063285;28;20167;-61
2023/01/01 04:17:52;;;;;;;4.55;3.78;;;;;;;18.66;49.11;100798.03;5064335;28;20094;-60
2023/01/01 04:20:17;;;;;;;5.32;4.10;;;;;;;18.60;49.07;100791.44;5063487;28;20409;-62
2023/01/01 04:22:43;;;;;;;8.68;3.45;;;;;;;18.65;49.04;100807.97;5064094;28;20017;-61
2023/01/01 04:25:09;;;;;;;4.53;3.35;;;;;;;18.64;49.26;100813.50;5064594;28;20044;-61
2023/01/01 04:27:35;;;;;;;4.22;2.90;;;;;;;18.65;49.28;100821.44;5063009;28;20025;-62
2023/01/01 04:30:00;;;;;;;5.55;3.53;;;;;;;18.64;49.29;100827.78;5064395;28;20491;-63
2023/01/01 04:32:26;;;;;;;5.80;3.28;;;;;;;18.62;49.01;100845.16;5064210;28;20027;-61
2023/01/01 04:34:51;;;;;;;4.05;2.83;;;;;;;18.63;49.18;100852.22;5064476;28;20020;-61
2023/01/01 04:37:16;;;;;;;4.38;3.45;;;;;;;18.63;49.26;100853.06;5064212;28;20028;-61
2023/01/01 04:39:42;;;;;;;3.90;2.95;;;;;;;18.63;49.18;100858.44;5066722;28;20051;-61
2023/01/01 04:42:07;;;;;;;4.20;3.30;;;;;;;18.63;49.00;100852.22;5068632;28;20040;-61
2023/01/01 04:44:32;;;;;;;5.25;3.00;;;;;;;18.63;48.92;100862.97;5068401;28;20031;-61
2023/01/01 04:46:57;;;;;;;7.13;4.00;;;;;;;18.63;49.18;100865.69;5068061;28;20055;-61
2023/01/01 04:49:23;;;;;;;3.70;2.78;;;;;;;18.62;48.87;100867.53;5067946;28;20049;-61
2023/01/01 04:51:48;;;;;;;4.57;2.88;;;;;;;18.61;48.94;100887.41;5068237;28;20043;-61
2023/01/01 04:54:13;;;;;;;3.10;2.67;;;;;;;18.60;49.05;100888.38;5067838;28;20120;-61
2023/01/01 04:56:39;;;;;;;6.72;3.17;;;;;;;18.53;48.99;100873.94;5068192;28;20025;-61
2023/01/01 04:59:04;;;;;;;5.13;2.95;;;;;;;18.61;49.00;100868.56;5067860;28;20049;-62
2023/01/01 05:01:30;;;;;;;5.32;2.88;;;;;;;18.58;49.14;100859.97;5067669;28;20028;-61
2023/01/01 05:03:56;;;;;;;6.57;2.80;;;;;;;18.61;48.86;100878.47;5068114;28;20025;-62
2023/01/01 05:06:22;;;;;;;5.47;2.55;;;;;;;18.60;49.15;100887.53;5068066;28;20051;-62
2023/01/01 05:08:49;;;;;;;4.70;2.85;;;;;;;18.59;49.05;100875.94;5060855;28;20033;-61
2023/01/01 05:11:19;;;;;;;4.35;3.33;;;;;;;18.59;48.99;100880.47;5054285;28;20049;-61
2023/01/01 05:13:46;;;;;;;5.60;2.80;;;;;;;18.58;49.20;100882.34;5047623;28;20040;-62
2023/01/01 05:16:14;;;;;;;4.05;2.80;;;;;;;18.58;49.38;100876.94;5047465;28;20017;-61
2023/01/01 05:18:39;;;;;;;4.47;3.30;;;;;;;18.59;49.23;100877.78;5047314;28;20040;-63
2023/01/01 05:21:07;;;;;;;4.55;3.10;;;;;;;18.58;48.94;100870.72;5047536;28;20600;-61
2023/01/01 05:23:33;;;;;;;4.00;2.65;;;;;;;18.58;49.20;100865.34;5046917;28;20041;-61
2023/01/01 05:25:59;;;;;;;4.95;2.58;;;;;;;18.56;49.38;100872.72;5053067;28;20048;-61
2023/01/01 05:28:24;;;;;;;4.60;2.85;;;;;;;18.57;49.18;100879.81;5067035;28;20473;-61
2023/01/01 05:30:50;;;;;;;3.60;2.55;;;;;;;18.57;48.94;100877.13;5067370;28;20021;-61
2023/01/01 05:33:16;;;;;;;4.22;2.70;;;;;;;18.56;49.22;100887.03;5067157;28;20037;-61
2023/01/01 05:35:41;;;;;;;7.35;3.10;;;;;;;18.55;49.18;100887.22;5067408;28;20048;-61
2023/01/01 05:38:06;;;;;;;4.88;2.40;;;;;;;18.55;48.85;100897.97;5066414;28;20032;-61
2023/01/01 05:40:31;;;;;;;4.75;3.28;;;;;;;18.54;49.06;100902.53;5067523;28;20035;-62
2023/01/01 05:42:57;;;;;;;4.40;2.60;;;;;;;18.54;49.05;100907.06;5067003;28;20029;-61
2023/01/01 05:45:22;;;;;;;4.57;2.25;;;;;;;18.54;49.25;100907.06;5067012;28;20052;-61
2023/01/01 05:47:47;;;;;;;4.68;3.05;;;;;;;18.53;49.07;100900.84;5065204;28;20451;-61
2023/01/01 05:50:13;;;;;;;4.10;2.47;;;;;;;18.53;48.98;100892.78;5065787;28;20049;-62
2023/01/01 05:52:38;;;;;;;2.88;2.33;;;;;;;18.53;49.00;100908.09;5066160;28;20033;-61
2023/01/01 05:55:04;;;;;;;4.60;2.80;;;;;;;18.52;49.31;100912.63;5066678;28;20020;-61
2023/01/01 05:57:29;;;;;;;3.38;2.30;;;;;;;18.49;49.18;100900.34;5066895;28;20021;-61
2023/01/01 05:59:54;;;;;;;3.40;2.35;;;;;;;18.51;49.01;100912.78;5066585;28;20036;-63
2023/01/01 06:02:20;;;;;;;3.78;2.35;;;;;;;18.51;49.02;100920.84;5066715;28;20033;-61
2023/01/01 06:04:45;;;;;;;4.85;2.35;;;;;;;18.51;49.01;100920.84;5065701;28;20031;-61
2023/01/01 06:07:10;;;;;;;5.45;2.38;;;;;;;18.51;49.32;100918.16;5064555;28;20408;-61
2023/01/01 06:09:35;;;;;;;2.75;2.00;;;;;;;18.49;49.02;100910.28;5065976;28;20025;-62
2023/01/01 06:12:01;;;;;;;4.03;2.22;;;;;;;18.50;49.02;100922.72;5066651;28;20021;-61
2023/01/01 06:14:26;;;;;;;3.53;2.22;;;;;;;18.49;49.32;100935.34;5065838;28;20021;-61
2023/01/01 06:16:51;;;;;;;5.18;2.47;;;;;;;18.49;48.95;100958.72;5066354;28;20025;-61
2023/01/01 06:19:16;;;;;;;3.55;2.17;;;;;;;18.48;48.96;100960.59;5066205;28;20033;-61
2023/01/01 06:21:42;;;;;;;6.88;2.30;;;;;;;18.47;49.22;100960.72;5066306;28;20025;-61
2023/01/01 06:24:07;;;;;;;5.93;2.53;;;;;;;18.40;48.80;100949.78;5065736;28;20243;-61
2023/01/01 06:26:33;;;;;;;3.88;2.40;;;;;;;18.48;49.32;100975.91;5066533;28;20496;-61
2023/01/01 06:28:59;;;;;;;6.18;2.30;;;;;;;18.47;48.97;100979.56;5065675;28;20417;-61
2023/01/01 06:31:25;;;;;;;4.82;2.10;;;;;;;18.43;49.05;100984.44;5066150;28;20083;-61
2023/01/01 06:33:51;;;;;;;8.40;2.47;;;;;;;18.46;49.22;100978.72;5065760;28;20501;-61
2023/01/01 06:36:18;;;;;;;5.30;2.10;;;;;;;18.45;48.82;100995.91;5065877;28;20127;-61
2023/01/01 06:38:46;;;;;;;3.72;2.00;;;;;;;18.45;49.17;100984.28;5065368;28;20048;-61
2023/01/01 06:41:14;;;;;;;3.03;2.05;;;;;;;18.45;48.91;101009.38;5066464;28;20027;-62
2023/01/01 06:43:40;;;;;;;3.08;2.25;;;;;;;18.46;49.16;101020.97;5065636;28;20025;-61
2023/01/01 06:46:16;;;;;;;2.83;2.00;;;;;;;18.45;48.81;101020.13;5065534;28;20033;-63
2023/01/01 06:48:42;;;;;;;3.85;2.15;;;;;;;18.45;48.61;101032.75;5065237;28;20044;-61
2023/01/01 06:51:10;;;;;;;2.85;1.80;;;;;;;18.44;49.00;101036.47;5066026;28;20070;-61
2023/01/01 06:53:35;;;;;;;3.80;2.00;;;;;;;18.44;48.91;101044.53;5063815;28;20036;-61
2023/01/01 06:56:01;;;;;;;3.10;1.85;;;;;;;18.39;48.71;101039.63;5066143;28;20029;-62
2023/01/01 06:58:27;;;;;;;2.67;2.03;;;;;;;18.38;48.79;101045.16;5064031;28;20037;-63
2023/01/01 07:00:52;;;;;;;2.42;2.00;;;;;;;18.41;48.80;101048.38;5065468;28;20054;-61
2023/01/01 07:03:18;;;;;;;2.28;1.77;;;;;;;18.43;49.06;101057.13;5062734;28;20054;-61
2023/01/01 07:05:43;;;;;;;2.78;1.90;;;;;;;18.43;48.76;101050.91;5063364;28;20045;-61
2023/01/01 07:08:08;;;;;;;3.45;2.10;;;;;;;18.43;48.80;101053.59;5062394;28;20029;-60
2023/01/01 07:10:33;;;;;;;3.55;2.22;;;;;;;18.43;48.83;101061.66;5064979;28;20079;-59
2023/01/01 07:12:59;;;;;;;3.10;1.90;;;;;;;18.43;48.92;101040.13;5064716;28;20021;-61
2023/01/01 07:15:25;;;;;;;3.30;1.98;;;;;;;18.43;48.78;101032.06;5064608;28;20119;-61
2023/01/01 07:17:50;;;;;;;3.30;2.08;;;;;;;18.43;48.99;101067.06;5063376;28;20064;-60
2023/01/01 07:20:16;;;;;;;3.30;2.00;;;;;;;18.41;48.94;101080.69;5064619;28;20016;-62
2023/01/01 07:22:41;;;;;;;5.47;2.75;;;;;;;18.42;49.06;101093.13;5064532;28;20835;-59
2023/01/01 07:25:06;;;;;;;5.15;2.67;;;;;;;18.43;49.24;101085.91;5065200;28;20033;-62
2023/01/01 07:27:32;;;;;;;4.93;2.55;;;;;;;18.44;49.03;101104.59;5064691;28;20043;-61
2023/01/01 07:29:57;;;;;;;6.70;2.45;;;;;;;18.44;49.29;101088.44;5064296;28;20033;-61
2023/01/01 07:32:22;;;;;;;5.70;2.53;;;;;;;18.43;49.29;101093.97;5064002;28;20031;-61
2023/01/01 07:34:47;;;;;;;5.38;2.33;;;;;;;18.46;49.34;101104.44;5063803;28;20122;-61
2023/01/01 07:37:13;;;;;;;5.07;2.33;;;;;;;18.45;49.29;101111.66;5062925;28;20103;-61
2023/01/01 07:39:38;;;;;;;5.70;2.70;;;;;;;18.46;49.13;101107.13;5063936;28;20028;-62
2023/01/01 07:42:03;;;;;;;4.15;2.75;;;;;;;18.45;49.46;101098.22;5064150;28;20028;-61
2023/01/01 07:44:28;;;;;;;5.68;2.63;;;;;;;18.46;49.24;101102.56;5062969;28;20039;-62
2023/01/01 07:47:04;;;;;;;4.15;2.80;;;;;;;18.47;49.58;101098.03;5064084;28;20032;-61
2023/01/01 07:49:29;;;;;;;3.95;2.75;;;;;;;18.46;49.27;101107.13;5063657;28;20037;-62
2023/01/01 07:51:54;;;;;;;6.13;2.25;;;;;;;18.47;49.42;101116.88;5063858;28;20051;-61
2023/01/01 07:54:20;;;;;;;5.25;2.33;;;;;;;18.47;49.76;101125.78;5063984;28;20025;-62
2023/01/01 07:56:45;;;;;;;4.07;2.47;;;;;;;18.47;49.46;101125.78;5064392;28;20041;-62
2023/01/01 07:59:10;;;;;;;4.68;2.00;;;;;;;18.47;49.41;101131.19;5062503;28;20058;-61
2023/01/01 08:01:36;;;;;;;3.30;1.92;;;;;;;18.46;49.48;101156.44;5064009;28;20636;-61
2023/01/01 08:04:02;;;;;;;6.43;2.42;;;;;;;18.45;49.42;101172.75;5065874;28;20033;-62
2023/01/01 08:06:27;;;;;;;4.32;2.38;;;;;;;18.46;49.55;101187.91;5066378;28;20044;-62
2023/01/01 08:08:52;;;;;;;3.83;2.10;;;;;;;18.47;49.66;101203.03;5063294;28;20478;-61
2023/01/01 08:11:18;;;;;;;3.70;1.90;;;;;;;18.42;49.61;101195.44;5064329;28;20032;-62
2023/01/01 08:13:43;;;;;;;5.57;2.10;;;;;;;18.46;49.55;101194.13;5063447;28;20036;-62
2023/01/01 08:16:08;;;;;;;3.28;1.90;;;;;;;18.47;49.81;101206.56;5063718;28;20024;-62
2023/01/01 08:18:34;;;;;;;3.05;1.90;;;;;;;18.46;49.41;101209.44;5064302;28;20083;-61
2023/01/01 08:20:59;;;;;;;4.65;2.10;;;;;;;18.47;49.43;101217.34;5063895;28;20024;-61
2023/01/01 08:23:24;;;;;;;3.20;1.77;;;;;;;18.49;49.53;101226.13;5063708;28;20021;-62
2023/01/01 08:25:50;;;;;;;2.90;1.70;;;;;;;18.48;49.60;101231.69;5063798;28;20072;-61
2023/01/01 08:28:15;;;;;;;3.50;1.92;;;;;;;18.48;49.74;101232.50;5063587;28;20025;-61
2023/01/01 08:30:40;;;;;;;4.90;2.10;;;;;;;18.49;49.59;101230.66;5063998;28;20085;-61
2023/01/01 08:33:06;;;;;;;3.15;1.90;;;;;;;18.41;49.76;101228.75;5063787;28;20021;-62
2023/01/01 08:35:31;;;;;;;3.75;1.70;;;;;;;18.46;49.86;101250.66;5063867;28;20021;-61
2023/01/01 08:37:56;;;;;;;4.32;1.98;;;;;;;18.46;49.82;101264.13;5059060;28;20493;-61
2023/01/01 08:40:22;;;;;;;3.83;1.80;;;;;;;18.47;49.55;101267.66;5063939;28;20077;-61
2023/01/01 08:42:47;;;;;;;5.72;1.85;;;;;;;18.47;49.65;101270.34;5064102;28;20021;-61
2023/01/01 08:45:12;;;;;;;3.40;1.52;;;;;;;18.48;49.49;101263.97;5063610;28;20028;-61
2023/01/01 08:47:37;;;;;;;4.50;1.88;;;;;;;18.40;49.38;101247.78;5063873;28;20040;-62
2023/01/01 08:50:04;;;;;;;3.03;1.70;;;;;;;18.43;49.61;101252.81;5063948;28;20037;-61
2023/01/01 08:52:29;;;;;;;2.65;1.75;;;;;;;18.47;49.53;101263.13;5063886;28;20032;-61
2023/01/01 08:54:55;;;;;;;2.38;1.30;;;;;;;18.47;49.33;101252.34;5062047;28;20025;-61
2023/01/01 08:57:20;;;;;;;3.45;1.80;;;;;;;18.47;49.22;101257.72;5063787;28;20032;-61
2023/01/01 08:59:45;;;;;;;6.13;1.98;;;;;;;18.47;49.21;101257.72;5063889;28;20029;-61
2023/01/01 09:02:11;;;;;;;4.20;1.77;;;;;;;18.48;49.35;101250.53;5063926;28;20037;-62
2023/01/01 09:04:36;;;;;;;2.95;1.70;;;;;;;18.49;49.31;101252.22;5063832;28;20052;-61
2023/01/01 09:07:02;;;;;;;4.25;1.85;;;;;;;18.49;49.21;101254.91;5063287;28;20028;-61
2023/01/01 09:09:27;;;;;;;5.65;2.00;;;;;;;18.52;48.96;101269.88;5062576;28;20021;-61
2023/01/01 09:11:54;;;;;;;4.03;2.20;;;;;;;18.51;49.30;101276.28;5063331;28;20025;-61
2023/01/01 09:14:20;;;;;;;3.38;1.95;;;;;;;18.52;49.16;101280.66;5063515;28;20025;-61
2023/01/01 09:16:46;;;;;;;3.83;1.50;;;;;;;18.53;49.42;101285.91;5062941;28;20028;-61
2023/01/01 09:19:11;;;;;;;3.67;1.42;;;;;;;18.55;49.49;101291.13;5062807;28;20056;-61
2023/01/01 09:21:37;;;;;;;3.65;1.50;;;;;;;18.56;49.51;101292.78;5063570;28;20021;-61
2023/01/01 09:24:02;;;;;;;2.85;1.80;;;;;;;18.57;49.60;101292.66;5063088;28;20020;-61
2023/01/01 09:26:27;;;;;;;3.42;1.48;;;;;;;18.57;49.60;101295.34;5065072;28;20025;-61
2023/01/01 09:28:53;;;;;;;3.72;1.70;;;;;;;18.57;49.51;101300.75;5065185;28;20024;-61
2023/01/01 09:31:18;;;;;;;3.70;1.80;;;;;;;18.60;49.47;101304.94;5066262;28;20071;-61
2023/01/01 09:33:43;;;;;;;3.58;1.52;;;;;;;18.60;49.55;101300.41;5066499;28;20029;-61
2023/01/01 09:36:22;;;;;;;4.72;1.70;;;;;;;18.60;49.39;101299.56;5066435;28;20676;-60
2023/01/01 09:38:48;;;;;;;3.30;1.40;;;;;;;18.62;49.49;101308.34;5064703;28;20103;-59
2023/01/01 09:41:51;;;;;;;2.85;1.73;;;;;;;18.61;49.54;101299.41;5067135;28;20442;-61
2023/01/01 09:44:25;;;;;;;4.43;1.60;;;;;;;18.62;49.51;101300.25;5059865;28;20032;-61
2023/01/01 09:46:52;;;;;;;3.17;1.48;;;;;;;18.62;49.65;101306.50;5066704;28;20025;-61
2023/01/01 09:49:27;;;;;;;2.83;1.38;;;;;;;18.62;49.60;101295.72;5065881;28;20148;-61
2023/01/01 09:51:57;;;;;;;4.03;1.40;;;;;;;18.59;49.39;101311.34;5066687;28;20541;-60
2023/01/01 09:54:32;;;;;;;3.05;1.55;;;;;;;18.64;49.39;101306.31;5066217;28;20033;-60
2023/01/01 09:56:59;;;;;;;4.55;2.22;;;;;;;18.65;49.14;101306.19;5066924;28;20101;-60
2023/01/01 09:59:24;;;;;;;2.17;1.30;;;;;;;18.68;49.39;101313.09;5066308;28;20120;-61
2023/01/01 10:01:59;;;;;;;2.30;1.20;;;;;;;18.68;49.07;101308.53;5066692;28;20056;-61
2023/01/01 10:04:43;;;;;;;1.77;1.10;;;;;;;18.71;48.87;101312.81;5065364;28;20120;-61
2023/01/01 10:07:43;;;;;;;3.10;1.60;;;;;;;18.72;48.78;101312.66;5066486;28;20047;-61
2023/01/01 10:10:26;;;;;;;3.42;1.73;;;;;;;18.73;48.83;101321.56;4984802;28;20051;-61
2023/01/01 10:13:07;;;;;;;1.73;1.33;;;;;;;18.75;48.65;101321.44;4985073;28;20066;-61
2023/01/01 10:15:36;;;;;;;1.73;1.15;;;;;;;18.72;48.60;101323.41;4985182;28;20090;-61
2023/01/01 10:18:05;;;;;;;;;;;;;;;18.75;48.59;101330.34;4968908;28;20041;-61
2023/01/01 10:20:37;;;;;;;1.58;1.20;;;;;;;18.76;48.34;101325.81;4985354;28;19910;-61
2023/01/01 10:23:31;;;;;;;2.40;1.20;;;;;;;18.73;48.31;101325.13;4984258;28;20536;-61
2023/01/01 10:25:57;;;;;;;2.67;1.55;;;;;;;18.73;48.44;101335.03;4988134;28;20061;-61
2023/01/01 10:28:42;;;;;;;3.15;1.48;;;;;;;18.72;48.58;101334.19;5002282;28;20038;-61
2023/01/01 10:31:14;;;;;;;2.38;1.45;;;;;;;18.71;48.28;101324.44;4968881;28;20042;-61
2023/01/01 10:33:39;;;;;;;1.73;1.10;;;;;;;18.72;48.23;101325.28;4965268;29;20382;-61
2023/01/01 10:36:06;;;;;;;4.00;1.50;;;;;;;18.75;48.34;101340.28;4983206;28;20090;-61
2023/01/01 10:38:34;;;;;;;3.00;1.65;;;;;;;18.67;48.31;101331.09;4967969;28;20031;-60
2023/01/01 10:41:06;;;;;;;1.98;1.27;;;;;;;18.73;48.63;101330.53;5000904;28;20038;-61
2023/01/01 10:43:31;;;;;;;2.40;1.25;;;;;;;18.73;48.14;101330.53;4984418;28;20034;-61
2023/01/01 10:45:59;;;;;;;2.22;1.20;;;;;;;18.61;48.23;101306.66;4991257;28;20026;-61
2023/01/01 10:48:26;;;;;;;2.97;1.50;;;;;;;18.71;48.47;101310.97;5065409;28;20041;-61
2023/01/01 10:50:58;;;;;;;2.20;1.20;;;;;;;18.70;48.41;101305.75;5065702;28;20052;-61
2023/01/01 10:53:29;;;;;;;5.30;1.30;;;;;;;18.68;48.45;101299.63;5064064;28;20024;-61
2023/01/01 10:56:00;;;;;;;3.15;0.95;;;;;;;18.69;48.44;101309.38;5066023;28;20028;-61
2023/01/01 10:58:41;;;;;;;2.78;1.40;;;;;;;18.68;48.24;101305.00;5063792;28;20025;-61
2023/01/01 11:01:12;;;;;;;1.70;1.15;;;;;;;18.67;48.12;101314.94;5065520;28;20021;-61
2023/01/01 11:03:52;;;;;;;2.10;1.15;;;;;;;18.66;48.24;101304.34;5064023;28;20061;-57
2023/01/01 11:06:46;;;;;;;2.45;1.20;;;;;;;18.66;48.00;101309.72;5074032;28;20032;-61
2023/01/01 11:09:27;;;;;;;2.88;1.42;;;;;;;18.65;48.08;101327.72;5084345;28;20077;-61
2023/01/01 11:11:58;;;;;;;3.50;1.30;;;;;;;18.65;48.37;101340.34;5085263;28;20048;-61
2023/01/01 11:14:28;;;;;;;3.53;1.45;;;;;;;18.65;48.03;101330.44;5067247;28;20465;-61
2023/01/01 11:16:54;;;;;;;3.28;1.45;;;;;;;18.57;48.08;101329.53;5085276;28;20024;-61
2023/01/01 11:19:27;;;;;;;2.65;1.10;;;;;;;18.66;48.05;101348.28;5083739;28;20081;-61
2023/01/01 11:21:53;;;;;;;2.45;1.00;;;;;;;18.68;47.92;101362.41;5084045;28;20363;-61
2023/01/01 11:24:27;;;;;;;2.40;1.50;;;;;;;18.66;48.08;101368.97;5083542;28;20035;-61
2023/01/01 11:26:53;;;;;;;2.00;1.48;;;;;;;18.66;48.37;101377.06;5071022;28;20583;-61
2023/01/01 11:29:23;;;;;;;2.58;1.05;;;;;;;18.66;48.12;101368.97;5063014;28;20036;-61
2023/01/01 11:31:49;;;;;;;2.47;1.30;;;;;;;18.67;48.18;101374.19;5065060;28;20033;-61
2023/01/01 11:34:28;;;;;;;3.25;1.55;;;;;;;18.68;48.28;101369.66;5062673;28;20032;-61
2023/01/01 11:37:18;;;;;;;2.33;1.30;;;;;;;18.71;48.21;101367.53;5064015;28;20032;-61